ePrivacy and GPDR Cookie Consent by Cookie Consent
EmailTwitter


Observations de surface / Québec / CYUL (71627)

Régions: Québec | Canada | États-Unis | Europe | France | UK | Ailleurs
Station
Affichage
Infos & localisation pour CYUL (71627) | Aide pour décoder les METARs

Observations prises le 2024-07-22 à 23H00 UTC à MONTREAL INTL A, QB (CYUL)

Etat du ciel: partiellement nuageux.

Température: 26.0 Celsius

Point de rosée: 13.0 Celsius

Humidité relative: 45%

Indice Humidex 29.

Vents: Ouest à 6 km/h ou 3 noeuds.

Pression au niveau moyen de la mer: 101.51 kilopascals.

Calage altimétrique: 101.49 kilopascals ou 29.97 pouces de mercure.

Visibilité horizontale: 30.00 milles terrestres ou 48.00 kilomètres.

Hauteur du plafond: 7620 mètres ( 25000 pieds ).

Observation METAR:

CYUL 222300Z 27003KT 30SM FEW060 FEW220 BKN250 26/13 A2997 RMK SC1CC1CI4 CC TR

SLP151 DENSITY ALT 1400FT=